Time;durP1;ratioP1;P1;durP2;ratioP2;P2;SDS_P1;SDS_P2;PMS_P1;PMS_P2;Temp;Humidity;BMP_temperature;BMP_pressure;BME280_temperature;BME280_humidity;BME280_pressure;Samples;Min_cycle;Max_cycle;Signal;HPM_P1;HPM_P2
2024/01/27 00:01:32;;;;;;;0.60;0.60;;;1.20;99.90;;;;;;5030146;28;20186;-70
2024/01/27 00:03:58;;;;;;;0.60;0.60;;;1.20;99.90;;;;;;5031079;28;20208;-70
2024/01/27 00:06:24;;;;;;;0.70;0.70;;;1.30;99.90;;;;;;5030669;28;20309;-74
2024/01/27 00:08:52;;;;;;;0.70;0.70;;;1.20;99.90;;;;;;5031096;28;20734;-74
2024/01/27 00:11:18;;;;;;;0.80;0.80;;;1.10;99.90;;;;;;5030848;28;20236;-75
2024/01/27 00:13:45;;;;;;;0.50;0.50;;;1.10;99.90;;;;;;5030926;28;20194;-74
2024/01/27 00:16:10;;;;;;;0.70;0.70;;;1.10;99.90;;;;;;5030878;28;20190;-74
2024/01/27 00:18:37;;;;;;;0.73;0.73;;;1.10;99.90;;;;;;5012713;28;20210;-74
2024/01/27 00:21:07;;;;;;;0.60;0.60;;;1.10;99.90;;;;;;5030691;28;20194;-74
2024/01/27 00:23:34;;;;;;;0.70;0.70;;;1.10;99.90;;;;;;5012893;28;20197;-75
2024/01/27 00:26:00;;;;;;;0.70;0.70;;;1.10;99.90;;;;;;5030656;28;20200;-72
2024/01/27 00:28:26;;;;;;;0.65;0.65;;;1.10;99.90;;;;;;5012812;28;20218;-73
2024/01/27 00:30:52;;;;;;;0.63;0.63;;;1.10;99.90;;;;;;5030565;28;20196;-73
2024/01/27 00:33:17;;;;;;;0.70;0.70;;;1.10;99.90;;;;;;5030648;28;20627;-73
2024/01/27 00:35:43;;;;;;;0.65;0.65;;;1.10;99.90;;;;;;5030745;28;20252;-73
2024/01/27 00:38:09;;;;;;;0.60;0.60;;;1.00;99.90;;;;;;5030609;28;20217;-74
2024/01/27 00:40:34;;;;;;;0.70;0.70;;;1.00;99.90;;;;;;5031066;28;20542;-74
2024/01/27 00:43:03;;;;;;;0.70;0.70;;;1.00;99.90;;;;;;5013061;28;20198;-73
2024/01/27 00:45:30;;;;;;;0.60;0.60;;;0.90;99.90;;;;;;5030529;28;20592;-74
2024/01/27 00:47:56;;;;;;;0.65;0.65;;;0.90;99.90;;;;;;5030385;28;20198;-74
2024/01/27 00:50:22;;;;;;;0.75;0.75;;;0.80;99.90;;;;;;5030343;28;20690;-74
2024/01/27 00:52:48;;;;;;;0.60;0.60;;;0.80;99.90;;;;;;5030588;28;20209;-74
2024/01/27 00:55:14;;;;;;;0.70;0.70;;;0.70;99.90;;;;;;5012769;28;20209;-73
2024/01/27 00:57:40;;;;;;;0.65;0.65;;;0.60;99.90;;;;;;5030365;28;20301;-75
2024/01/27 01:00:09;;;;;;;0.60;0.60;;;0.50;99.90;;;;;;5030509;28;20216;-75
2024/01/27 01:02:36;;;;;;;0.65;0.65;;;0.40;99.90;;;;;;5012577;28;20199;-74
2024/01/27 01:05:03;;;;;;;0.68;0.68;;;0.30;99.90;;;;;;5030742;28;20716;-74
2024/01/27 01:07:30;;;;;;;0.70;0.70;;;0.20;99.90;;;;;;5012398;28;20621;-74
2024/01/27 01:09:55;;;;;;;0.60;0.60;;;0.20;99.90;;;;;;5030444;28;20186;-74
2024/01/27 01:12:21;;;;;;;0.70;0.70;;;0.10;99.90;;;;;;5032648;28;20208;-74
2024/01/27 01:14:47;;;;;;;0.73;0.73;;;0.00;99.90;;;;;;5034151;28;20565;-70
2024/01/27 01:17:13;;;;;;;0.60;0.60;;;0.00;99.90;;;;;;5033968;28;20214;-70
2024/01/27 01:19:40;;;;;;;0.73;0.73;;;-0.20;99.90;;;;;;5015997;28;20205;-71
2024/01/27 01:22:06;;;;;;;0.65;0.65;;;-0.30;99.90;;;;;;5033680;28;20210;-70
2024/01/27 01:24:32;;;;;;;0.60;0.60;;;-0.30;99.90;;;;;;5033838;28;20704;-70
2024/01/27 01:26:59;;;;;;;0.70;0.70;;;-0.30;99.90;;;;;;5033995;28;20221;-70
2024/01/27 01:29:24;;;;;;;0.80;0.80;;;-0.30;99.90;;;;;;5033382;28;20569;-70
2024/01/27 01:31:50;;;;;;;0.80;0.80;;;-0.30;99.90;;;;;;5033719;28;20198;-70
2024/01/27 01:34:16;;;;;;;0.70;0.70;;;-0.20;99.90;;;;;;5032425;28;20241;-70
2024/01/27 01:36:42;;;;;;;0.65;0.65;;;-0.10;99.90;;;;;;5015673;28;20198;-70
2024/01/27 01:39:09;;;;;;;0.70;0.70;;;-0.10;99.90;;;;;;5015812;28;20201;-70
2024/01/27 01:41:35;;;;;;;0.60;0.60;;;-0.20;99.90;;;;;;5033423;28;20224;-69
2024/01/27 01:44:01;;;;;;;0.60;0.60;;;-0.30;99.90;;;;;;5032182;28;20305;-70
2024/01/27 01:46:26;;;;;;;0.70;0.70;;;-0.40;99.90;;;;;;5015841;28;20198;-70
2024/01/27 01:48:52;;;;;;;0.77;0.77;;;-0.50;99.90;;;;;;5033445;28;20206;-70
2024/01/27 01:51:18;;;;;;;0.60;0.60;;;-0.50;99.90;;;;;;5033305;28;20198;-70
2024/01/27 01:53:47;;;;;;;0.70;0.70;;;-0.50;99.90;;;;;;5015839;28;20236;-70
2024/01/27 01:56:15;;;;;;;0.70;0.70;;;-0.60;99.90;;;;;;5033621;28;20731;-69
2024/01/27 01:58:41;;;;;;;0.70;0.70;;;-0.70;99.90;;;;;;5033150;28;20545;-70
2024/01/27 02:01:07;;;;;;;0.63;0.63;;;-0.80;99.90;;;;;;5033231;28;20657;-69
2024/01/27 02:03:32;;;;;;;0.77;0.77;;;-0.80;99.90;;;;;;5032803;28;20728;-70
2024/01/27 02:05:58;;;;;;;0.70;0.70;;;-0.80;99.90;;;;;;5033117;28;20221;-70
2024/01/27 02:08:24;;;;;;;0.80;0.80;;;-0.90;99.90;;;;;;5032937;28;20237;-70
2024/01/27 02:10:50;;;;;;;0.60;0.60;;;-1.00;99.90;;;;;;5032860;28;20198;-70
2024/01/27 02:13:19;;;;;;;0.80;0.80;;;-1.00;99.90;;;;;;5033005;28;20592;-70
2024/01/27 02:15:46;;;;;;;0.30;0.30;;;-0.90;99.90;;;;;;5033082;28;20197;-70
2024/01/27 02:18:11;;;;;;;0.40;0.40;;;-0.80;99.90;;;;;;5032862;28;20214;-70
2024/01/27 02:20:38;;;;;;;0.40;0.40;;;-0.70;99.90;;;;;;5014492;28;20225;-71
2024/01/27 02:23:04;;;;;;;0.38;0.38;;;-0.80;99.90;;;;;;5032052;28;20186;-70
2024/01/27 02:25:31;;;;;;;0.30;0.30;;;-0.80;99.90;;;;;;5032737;28;20236;-70
2024/01/27 02:27:57;;;;;;;0.30;0.30;;;-0.80;99.90;;;;;;5032607;28;20202;-70
2024/01/27 02:30:22;;;;;;;0.40;0.40;;;-0.90;99.90;;;;;;5014428;28;20198;-70
2024/01/27 02:32:48;;;;;;;0.40;0.40;;;-1.00;99.90;;;;;;5032701;28;20256;-70
2024/01/27 02:35:14;;;;;;;0.20;0.20;;;-1.10;99.90;;;;;;5032618;28;20193;-70
2024/01/27 02:37:40;;;;;;;0.40;0.40;;;-1.20;99.90;;;;;;5032595;28;20256;-70
2024/01/27 02:40:22;;;;;;;0.40;0.40;;;-1.30;99.90;;;;;;5032256;28;20213;-70
2024/01/27 02:42:48;;;;;;;0.30;0.30;;;-1.30;99.90;;;;;;5014719;28;20194;-70
2024/01/27 02:45:14;;;;;;;0.43;0.43;;;-1.20;99.90;;;;;;5032461;28;20197;-70
2024/01/27 02:47:39;;;;;;;5.07;2.25;;;-1.20;99.90;;;;;;5032846;28;20599;-70
2024/01/27 02:50:06;;;;;;;0.40;0.40;;;-1.10;99.90;;;;;;5014610;28;20666;-71
2024/01/27 02:52:32;;;;;;;0.40;0.40;;;-1.00;99.90;;;;;;5032356;28;20606;-71
2024/01/27 02:54:58;;;;;;;0.40;0.40;;;-1.00;99.90;;;;;;5014490;28;20203;-71
2024/01/27 02:57:23;;;;;;;0.30;0.30;;;-1.10;99.90;;;;;;5031913;28;20210;-71
2024/01/27 02:59:49;;;;;;;0.38;0.38;;;-1.10;99.90;;;;;;5032070;28;20282;-71
2024/01/27 03:02:15;;;;;;;0.40;0.40;;;-1.20;99.90;;;;;;5032029;28;20344;-71
2024/01/27 03:04:41;;;;;;;0.20;0.20;;;-1.40;99.90;;;;;;5014153;28;20201;-71
2024/01/27 03:07:07;;;;;;;0.40;0.40;;;-1.40;99.90;;;;;;5031827;28;20233;-70
2024/01/27 03:09:32;;;;;;;0.30;0.30;;;-1.50;99.90;;;;;;5013944;28;20198;-70
2024/01/27 03:12:00;;;;;;;0.35;0.35;;;-1.50;99.90;;;;;;5014208;28;20696;-70
2024/01/27 03:14:26;;;;;;;0.30;0.30;;;-1.50;99.90;;;;;;5031593;28;20238;-70
2024/01/27 03:16:52;;;;;;;0.45;0.45;;;-1.50;99.90;;;;;;5013981;28;20761;-70
2024/01/27 03:19:18;;;;;;;0.35;0.35;;;-1.60;99.90;;;;;;5031752;28;20277;-71
2024/01/27 03:21:43;;;;;;;0.40;0.40;;;-1.70;99.90;;;;;;5031199;28;20202;-71
2024/01/27 03:24:09;;;;;;;7.50;2.92;;;-1.80;99.90;;;;;;5031793;28;20272;-70
2024/01/27 03:26:35;;;;;;;0.40;0.40;;;-1.80;99.90;;;;;;5031465;28;20248;-70
2024/01/27 03:29:01;;;;;;;0.40;0.40;;;-1.90;99.90;;;;;;5031717;28;20194;-69
2024/01/27 03:31:35;;;;;;;0.32;0.32;;;-2.00;99.90;;;;;;5031431;28;20195;-70
2024/01/27 03:34:02;;;;;;;0.50;0.50;;;-2.10;99.90;;;;;;5031517;28;20719;-70
2024/01/27 03:36:31;;;;;;;0.40;0.40;;;-2.10;99.90;;;;;;5013497;28;20194;-73
2024/01/27 03:38:58;;;;;;;0.40;0.40;;;-2.10;99.90;;;;;;5031384;28;20210;-74
2024/01/27 03:41:29;;;;;;;0.50;0.50;;;-2.10;99.90;;;;;;5031269;28;20198;-74
2024/01/27 03:43:55;;;;;;;0.40;0.40;;;-2.20;99.90;;;;;;5031330;28;20194;-73
2024/01/27 03:46:21;;;;;;;0.40;0.40;;;-2.20;99.90;;;;;;5031105;28;20260;-73
2024/01/27 03:48:46;;;;;;;0.40;0.40;;;-2.30;99.90;;;;;;5031433;28;20213;-74
2024/01/27 03:51:12;;;;;;;0.40;0.40;;;-2.30;99.90;;;;;;5031327;28;20198;-73
2024/01/27 03:53:38;;;;;;;0.40;0.40;;;-2.30;99.90;;;;;;5031176;28;20319;-74
2024/01/27 03:56:04;;;;;;;0.40;0.40;;;-2.30;99.90;;;;;;5013816;28;20731;-73
2024/01/27 03:58:30;;;;;;;0.40;0.40;;;-2.40;99.90;;;;;;5013173;28;20216;-74
2024/01/27 04:00:57;;;;;;;0.50;0.50;;;-2.50;99.90;;;;;;5013356;28;20208;-74
2024/01/27 04:03:23;;;;;;;0.40;0.40;;;-2.50;99.90;;;;;;5012210;28;20203;-73
2024/01/27 04:05:48;;;;;;;0.45;0.45;;;-2.70;99.90;;;;;;5031057;28;20255;-73
2024/01/27 04:08:14;;;;;;;0.40;0.40;;;-2.70;99.90;;;;;;5031422;28;20226;-74
2024/01/27 04:10:40;;;;;;;0.43;0.43;;;-2.70;99.90;;;;;;5031012;28;20198;-74
2024/01/27 04:13:05;;;;;;;0.43;0.43;;;-2.80;99.90;;;;;;5013296;28;20234;-74
2024/01/27 04:15:38;;;;;;;0.40;0.40;;;-2.80;99.90;;;;;;5013155;28;20242;-75
2024/01/27 04:18:11;;;;;;;0.50;0.50;;;-2.90;99.90;;;;;;5030711;28;20209;-74
2024/01/27 04:20:37;;;;;;;0.40;0.40;;;-3.00;99.90;;;;;;5030509;28;20579;-74
2024/01/27 04:23:03;;;;;;;0.40;0.40;;;-3.00;99.90;;;;;;5030812;28;20183;-73
2024/01/27 04:25:29;;;;;;;0.40;0.40;;;-3.10;99.90;;;;;;5029389;28;20281;-73
2024/01/27 04:27:55;;;;;;;0.43;0.43;;;-3.10;99.90;;;;;;5030829;28;20654;-74
2024/01/27 04:30:21;;;;;;;0.40;0.40;;;-3.10;99.90;;;;;;5030492;28;20208;-73
2024/01/27 04:32:49;;;;;;;0.40;0.40;;;-3.20;99.90;;;;;;5012620;28;20289;-73
2024/01/27 04:35:14;;;;;;;0.40;0.40;;;-3.20;99.90;;;;;;5030663;28;20626;-73
2024/01/27 04:37:40;;;;;;;0.50;0.50;;;-3.20;99.90;;;;;;5030423;28;20288;-73
2024/01/27 04:40:07;;;;;;;0.40;0.40;;;-3.30;99.90;;;;;;5030669;28;20203;-74
2024/01/27 04:42:34;;;;;;;0.43;0.43;;;-3.30;99.90;;;;;;5012683;28;20770;-73
2024/01/27 04:45:02;;;;;;;0.40;0.40;;;-3.30;99.90;;;;;;5013049;28;20194;-73
2024/01/27 04:47:34;;;;;;;0.50;0.50;;;-3.20;99.90;;;;;;5033193;28;20243;-73
2024/01/27 04:50:00;;;;;;;0.40;0.40;;;-3.20;99.90;;;;;;5016732;28;20909;-73
2024/01/27 04:52:25;;;;;;;0.40;0.40;;;-3.10;99.90;;;;;;5034665;28;20194;-73
2024/01/27 04:54:51;;;;;;;0.47;0.47;;;-3.10;99.90;;;;;;5016972;28;20209;-73
2024/01/27 04:57:17;;;;;;;0.50;0.50;;;-3.20;99.90;;;;;;5016438;28;20225;-73
2024/01/27 04:59:42;;;;;;;0.40;0.40;;;-3.30;99.90;;;;;;5034405;28;20201;-73
2024/01/27 05:02:08;;;;;;;0.40;0.40;;;-3.30;99.90;;;;;;5034845;28;20191;-73
2024/01/27 05:04:34;;;;;;;0.60;0.60;;;-3.40;99.90;;;;;;5034226;28;20248;-73
2024/01/27 05:06:59;;;;;;;0.40;0.40;;;-3.50;99.90;;;;;;5033979;28;20242;-73
2024/01/27 05:09:25;;;;;;;0.50;0.50;;;-3.60;99.90;;;;;;5016217;28;20272;-73
2024/01/27 05:11:53;;;;;;;0.40;0.40;;;-3.60;99.90;;;;;;5034248;28;20281;-73
2024/01/27 05:14:19;;;;;;;0.40;0.40;;;-3.70;99.90;;;;;;5033943;28;20209;-73
2024/01/27 05:16:45;;;;;;;0.50;0.50;;;-3.70;99.90;;;;;;5034002;28;20205;-73
2024/01/27 05:19:11;;;;;;;0.50;0.50;;;-3.70;99.90;;;;;;5032817;28;20216;-74
2024/01/27 05:21:38;;;;;;;0.40;0.40;;;-3.70;99.90;;;;;;5015854;28;20686;-73
2024/01/27 05:24:04;;;;;;;0.40;0.40;;;-3.60;99.90;;;;;;5032669;28;20586;-73
2024/01/27 05:26:29;;;;;;;0.40;0.40;;;-3.50;99.90;;;;;;5033720;28;20202;-73
2024/01/27 05:28:55;;;;;;;0.50;0.50;;;-3.50;99.90;;;;;;5033522;28;20208;-73
2024/01/27 05:31:21;;;;;;;0.40;0.40;;;-3.60;99.90;;;;;;5033635;28;20206;-72
2024/01/27 05:33:46;;;;;;;0.40;0.40;;;-3.60;99.90;;;;;;5016034;28;20666;-72
2024/01/27 05:36:12;;;;;;;0.50;0.50;;;-3.70;99.90;;;;;;5033723;28;20202;-72
2024/01/27 05:38:37;;;;;;;0.50;0.50;;;-3.70;99.90;;;;;;5033476;28;20685;-73
2024/01/27 05:41:04;;;;;;;0.50;0.50;;;-3.70;99.90;;;;;;5033700;28;20194;-69
2024/01/27 05:43:29;;;;;;;0.45;0.45;;;-3.60;99.90;;;;;;5033433;28;20658;-69
2024/01/27 05:45:55;;;;;;;0.40;0.40;;;-3.40;99.90;;;;;;5033557;28;20198;-70
2024/01/27 05:48:21;;;;;;;0.50;0.50;;;-3.40;99.90;;;;;;5015610;28;20672;-69
2024/01/27 05:50:57;;;;;;;0.40;0.40;;;-3.30;99.90;;;;;;5015744;28;20289;-69
2024/01/27 05:53:23;;;;;;;0.50;0.50;;;-3.30;99.90;;;;;;5015496;28;20201;-69
2024/01/27 05:55:49;;;;;;;0.50;0.50;;;-3.30;99.90;;;;;;5033490;28;20190;-70
2024/01/27 05:58:15;;;;;;;0.40;0.40;;;-3.20;99.90;;;;;;5031937;28;20288;-69
2024/01/27 06:00:43;;;;;;;0.40;0.40;;;-3.30;99.90;;;;;;5033249;28;20320;-69
2024/01/27 06:03:10;;;;;;;0.50;0.50;;;-3.30;99.90;;;;;;5015300;28;20678;-69
2024/01/27 06:05:35;;;;;;;0.40;0.40;;;-3.40;99.90;;;;;;5015413;28;20575;-69
2024/01/27 06:08:01;;;;;;;0.50;0.50;;;-3.60;99.90;;;;;;5015455;28;20230;-70
2024/01/27 06:10:27;;;;;;;0.50;0.50;;;-3.60;99.90;;;;;;5033094;28;20229;-69
2024/01/27 06:12:54;;;;;;;0.57;0.57;;;-3.60;99.90;;;;;;5033253;28;20630;-69
2024/01/27 06:15:19;;;;;;;0.40;0.40;;;-3.70;99.90;;;;;;5032878;28;20201;-68
2024/01/27 06:17:45;;;;;;;0.50;0.50;;;-3.50;99.90;;;;;;5032891;28;20384;-69
2024/01/27 06:20:11;;;;;;;0.50;0.50;;;-3.50;99.90;;;;;;5032787;28;20252;-68
2024/01/27 06:22:36;;;;;;;0.60;0.60;;;-3.50;99.90;;;;;;5031499;28;20190;-68
2024/01/27 06:25:02;;;;;;;0.50;0.50;;;-3.40;99.90;;;;;;5033116;28;20206;-69
2024/01/27 06:27:28;;;;;;;0.40;0.40;;;-3.40;99.90;;;;;;5014675;28;20210;-68
2024/01/27 06:29:54;;;;;;;0.40;0.40;;;-3.30;99.90;;;;;;5032630;28;20198;-69
2024/01/27 06:32:19;;;;;;;0.50;0.50;;;-3.30;99.90;;;;;;5014719;28;20206;-69
2024/01/27 06:34:45;;;;;;;0.45;0.45;;;-3.40;99.90;;;;;;5032590;28;20537;-69
2024/01/27 06:37:11;;;;;;;0.40;0.40;;;-3.40;99.90;;;;;;5032471;28;20264;-69
2024/01/27 06:39:36;;;;;;;0.50;0.50;;;-3.50;99.90;;;;;;5032348;28;20217;-69
2024/01/27 06:42:02;;;;;;;0.40;0.40;;;-3.60;99.90;;;;;;5032450;28;20209;-69
2024/01/27 06:44:28;;;;;;;0.50;0.50;;;-3.70;99.90;;;;;;5032137;28;20679;-68
2024/01/27 06:46:54;;;;;;;0.30;0.30;;;-3.70;99.90;;;;;;5032430;28;20191;-69
2024/01/27 06:49:19;;;;;;;0.50;0.50;;;-3.70;99.90;;;;;;5032138;28;20245;-69
2024/01/27 06:51:45;;;;;;;0.40;0.40;;;-3.70;99.90;;;;;;5014441;28;20190;-70
2024/01/27 06:54:11;;;;;;;0.50;0.50;;;-3.80;99.90;;;;;;5032115;28;20546;-69
2024/01/27 06:56:37;;;;;;;0.50;0.50;;;-3.80;99.90;;;;;;5014226;28;20668;-69
2024/01/27 06:59:02;;;;;;;0.40;0.40;;;-3.80;99.90;;;;;;5014426;28;20246;-70
2024/01/27 07:01:28;;;;;;;0.50;0.50;;;-3.80;99.90;;;;;;5014046;28;20216;-69
2024/01/27 07:03:53;;;;;;;0.50;0.50;;;-3.80;99.90;;;;;;5031940;28;20190;-70
2024/01/27 07:06:19;;;;;;;0.40;0.40;;;-3.80;99.90;;;;;;5014984;28;20267;-73
2024/01/27 07:08:45;;;;;;;0.50;0.50;;;-3.70;99.90;;;;;;5031505;28;20214;-74
2024/01/27 07:11:10;;;;;;;0.50;0.50;;;-3.70;99.90;;;;;;5033411;28;20694;-73
2024/01/27 07:13:36;;;;;;;0.47;0.47;;;-3.70;99.90;;;;;;5033187;28;20194;-74
2024/01/27 07:16:02;;;;;;;0.40;0.40;;;-3.80;99.90;;;;;;5034067;28;20194;-72
2024/01/27 07:18:29;;;;;;;0.40;0.40;;;-3.80;99.90;;;;;;5033655;28;20293;-73
2024/01/27 07:20:54;;;;;;;0.40;0.40;;;-3.80;99.90;;;;;;5033429;28;20190;-73
2024/01/27 07:23:20;;;;;;;0.40;0.40;;;-3.80;99.90;;;;;;5033422;28;20207;-74
2024/01/27 07:25:46;;;;;;;0.40;0.40;;;-3.90;99.90;;;;;;5014763;28;20244;-73
2024/01/27 07:28:12;;;;;;;0.40;0.40;;;-3.90;99.90;;;;;;5031754;28;20243;-72
2024/01/27 07:30:38;;;;;;;1.63;0.68;;;-3.90;99.90;;;;;;5032079;28;20198;-73
2024/01/27 07:33:04;;;;;;;0.40;0.40;;;-3.90;99.90;;;;;;5032473;28;20190;-75
2024/01/27 07:35:31;;;;;;;0.45;0.45;;;-3.90;99.90;;;;;;5014086;28;20209;-77
2024/01/27 07:37:57;;;;;;;0.40;0.40;;;-3.90;99.90;;;;;;5032620;28;20213;-73
2024/01/27 07:40:23;;;;;;;0.40;0.40;;;-3.90;99.90;;;;;;5032317;28;20650;-74
2024/01/27 07:42:48;;;;;;;0.50;0.50;;;-3.90;99.90;;;;;;5032897;28;20194;-73
2024/01/27 07:45:15;;;;;;;0.40;0.40;;;-4.00;99.90;;;;;;5014644;28;20686;-73
2024/01/27 07:47:41;;;;;;;0.43;0.43;;;-3.90;99.90;;;;;;5032643;28;20200;-72
2024/01/27 07:50:07;;;;;;;0.47;0.47;;;-3.90;99.90;;;;;;5032997;28;20607;-73
2024/01/27 07:52:32;;;;;;;0.40;0.40;;;-3.90;99.90;;;;;;5032808;28;20202;-74
2024/01/27 07:54:58;;;;;;;0.47;0.47;;;-3.90;99.90;;;;;;5033242;28;20197;-74
2024/01/27 07:57:24;;;;;;;0.40;0.40;;;-3.90;99.90;;;;;;5032281;28;20226;-73
2024/01/27 07:59:50;;;;;;;0.43;0.43;;;-4.00;99.90;;;;;;5014744;28;20285;-74
2024/01/27 08:02:15;;;;;;;0.50;0.50;;;-3.90;99.90;;;;;;5032943;28;20241;-74
2024/01/27 08:04:41;;;;;;;0.43;0.43;;;-3.90;99.90;;;;;;5032091;28;20226;-72
2024/01/27 08:07:09;;;;;;;0.50;0.50;;;-3.90;99.90;;;;;;5015361;28;20245;-73
2024/01/27 08:09:35;;;;;;;0.40;0.40;;;-3.90;99.90;;;;;;5032322;28;20229;-74
2024/01/27 08:12:02;;;;;;;0.40;0.40;;;-3.90;99.90;;;;;;5031427;28;20293;-72
2024/01/27 08:14:30;;;;;;;0.45;0.45;;;-3.80;99.90;;;;;;5030995;28;20222;-74
2024/01/27 08:16:56;;;;;;;0.40;0.40;;;-3.80;99.90;;;;;;5030602;28;20209;-72
2024/01/27 08:19:23;;;;;;;0.45;0.45;;;-3.70;99.90;;;;;;5030661;28;20578;-71
2024/01/27 08:21:49;;;;;;;0.40;0.40;;;-3.60;99.90;;;;;;5029852;28;20194;-72
2024/01/27 08:24:15;;;;;;;0.50;0.50;;;-3.50;99.90;;;;;;5030825;28;20549;-72
2024/01/27 08:26:42;;;;;;;0.45;0.45;;;-3.40;99.90;;;;;;5030588;28;20652;-72
2024/01/27 08:29:08;;;;;;;0.40;0.40;;;-3.30;99.90;;;;;;5012982;28;20198;-73
2024/01/27 08:31:34;;;;;;;0.47;0.47;;;-3.20;99.90;;;;;;5012830;28;20198;-72
2024/01/27 08:33:59;;;;;;;0.40;0.40;;;-3.20;99.90;;;;;;5030802;28;20684;-73
2024/01/27 08:36:25;;;;;;;0.40;0.40;;;-3.10;99.90;;;;;;5030478;28;20195;-73
2024/01/27 08:38:51;;;;;;;1.58;1.00;;;-3.10;99.90;;;;;;5012852;28;20298;-72
2024/01/27 08:41:16;;;;;;;0.50;0.50;;;-3.10;99.90;;;;;;5030544;28;20248;-71
2024/01/27 08:43:42;;;;;;;0.50;0.50;;;-3.10;99.90;;;;;;5030526;28;20190;-71
2024/01/27 08:46:11;;;;;;;0.40;0.40;;;-3.00;99.90;;;;;;5030594;28;20244;-71
2024/01/27 08:48:37;;;;;;;0.30;0.30;;;-3.10;99.90;;;;;;5012728;28;20393;-71
2024/01/27 08:51:02;;;;;;;0.40;0.40;;;-3.10;99.90;;;;;;5012661;28;20281;-72
2024/01/27 08:53:28;;;;;;;0.40;0.40;;;-3.10;99.90;;;;;;5030725;28;20197;-71
2024/01/27 08:55:54;;;;;;;0.40;0.40;;;-3.10;99.90;;;;;;5014244;28;20272;-70
2024/01/27 08:58:19;;;;;;;0.45;0.45;;;-3.10;99.90;;;;;;5031868;28;20294;-71
2024/01/27 09:00:45;;;;;;;0.40;0.40;;;-3.20;99.90;;;;;;5032261;28;20670;-71
2024/01/27 09:03:12;;;;;;;0.40;0.40;;;-3.20;99.90;;;;;;5032224;28;20194;-71
2024/01/27 09:05:38;;;;;;;0.43;0.43;;;-3.10;99.90;;;;;;5032006;28;20197;-71
2024/01/27 09:08:04;;;;;;;0.50;0.50;;;-3.10;99.90;;;;;;5030625;28;20234;-71
2024/01/27 09:10:30;;;;;;;0.40;0.40;;;-3.00;99.90;;;;;;5031896;28;20560;-71
2024/01/27 09:12:55;;;;;;;0.40;0.40;;;-2.90;99.90;;;;;;5014114;28;20236;-70
2024/01/27 09:15:21;;;;;;;0.40;0.40;;;-2.90;99.90;;;;;;5014069;28;20198;-71
2024/01/27 09:17:48;;;;;;;0.40;0.40;;;-2.80;99.90;;;;;;5014560;28;20214;-71
2024/01/27 09:20:14;;;;;;;0.40;0.40;;;-2.80;99.90;;;;;;5013999;28;20221;-71
2024/01/27 09:22:41;;;;;;;0.50;0.50;;;-2.70;99.90;;;;;;5031848;28;20194;-71
2024/01/27 09:25:08;;;;;;;0.47;0.47;;;-2.70;99.90;;;;;;5014652;28;20253;-75
2024/01/27 09:27:34;;;;;;;0.47;0.47;;;-2.70;99.90;;;;;;5014687;28;20198;-75
2024/01/27 09:29:59;;;;;;;0.35;0.35;;;-2.50;99.90;;;;;;5014818;28;20204;-75
2024/01/27 09:32:25;;;;;;;0.38;0.38;;;-2.50;99.90;;;;;;5015873;28;20549;-73
2024/01/27 09:34:53;;;;;;;0.50;0.50;;;-2.40;99.90;;;;;;5020131;28;20198;-75
2024/01/27 09:37:19;;;;;;;0.40;0.40;;;-2.30;99.90;;;;;;5020004;28;20233;-76
2024/01/27 09:39:45;;;;;;;0.40;0.40;;;-2.20;99.90;;;;;;5037174;28;20670;-75
2024/01/27 09:42:14;;;;;;;0.40;0.40;;;-2.10;99.90;;;;;;5037456;28;20221;-75
2024/01/27 09:44:47;;;;;;;0.45;0.45;;;-1.90;99.90;;;;;;5037638;28;20257;-75
2024/01/27 09:47:13;;;;;;;0.40;0.40;;;-1.80;99.90;;;;;;5036926;28;20225;-75
2024/01/27 09:49:41;;;;;;;0.40;0.40;;;-1.60;99.90;;;;;;5019183;28;20229;-75
2024/01/27 09:52:08;;;;;;;0.32;0.32;;;-1.40;99.90;;;;;;5019306;28;20662;-75
2024/01/27 09:54:34;;;;;;;0.30;0.30;;;-1.30;99.90;;;;;;5036849;28;20719;-75
2024/01/27 09:57:01;;;;;;;0.50;0.50;;;-1.30;99.90;;;;;;5035425;28;20208;-76
2024/01/27 09:59:28;;;;;;;0.50;0.50;;;-1.20;99.90;;;;;;5035817;28;20194;-76
2024/01/27 10:01:56;;;;;;;0.45;0.45;;;-1.10;99.90;;;;;;5035755;28;20558;-76
2024/01/27 10:04:25;;;;;;;0.65;0.65;;;-1.10;99.90;;;;;;5018206;28;20206;-75
2024/01/27 10:06:51;;;;;;;4.18;2.70;;;-1.00;99.90;;;;;;5019414;28;20245;-75
2024/01/27 10:09:17;;;;;;;1.77;1.30;;;-0.80;99.90;;;;;;5036164;28;20209;-75
2024/01/27 10:11:46;;;;;;;0.70;0.68;;;-0.50;99.90;;;;;;5035698;28;20196;-74
2024/01/27 10:14:12;;;;;;;0.40;0.40;;;-0.20;99.90;;;;;;5036922;28;20626;-75
2024/01/27 10:16:45;;;;;;;1.15;1.15;;;-0.10;99.90;;;;;;5037155;28;20217;-75
2024/01/27 10:19:18;;;;;;;0.80;0.80;;;0.10;99.90;;;;;;5035884;28;20681;-75
2024/01/27 10:21:45;;;;;;;0.75;0.75;;;0.30;99.90;;;;;;5036338;28;20193;-76
2024/01/27 10:24:12;;;;;;;4.55;2.60;;;0.50;99.90;;;;;;5037102;28;20194;-75
2024/01/27 10:26:37;;;;;;;0.70;0.70;;;0.70;99.90;;;;;;5036598;28;20568;-75
2024/01/27 10:29:03;;;;;;;0.60;0.60;;;0.50;99.90;;;;;;5018842;28;20202;-75
2024/01/27 10:31:31;;;;;;;0.52;0.52;;;0.50;99.90;;;;;;5036322;28;20205;-75
2024/01/27 10:33:57;;;;;;;0.47;0.47;;;0.70;99.90;;;;;;5035715;28;20654;-74
2024/01/27 10:36:24;;;;;;;0.77;0.77;;;0.70;99.90;;;;;;5035175;28;20194;-75
2024/01/27 10:38:50;;;;;;;11.25;3.42;;;0.60;99.90;;;;;;5034873;28;20574;-75
2024/01/27 10:41:26;;;;;;;0.68;0.68;;;0.50;99.90;;;;;;5034685;28;20190;-75
2024/01/27 10:43:52;;;;;;;3.97;1.30;;;0.50;99.90;;;;;;5034285;28;20197;-76
2024/01/27 10:46:23;;;;;;;1.02;0.93;;;0.60;99.90;;;;;;5034670;28;20198;-75
2024/01/27 10:48:52;;;;;;;5.28;2.95;;;0.80;99.90;;;;;;5034462;28;20733;-75
2024/01/27 10:51:29;;;;;;;0.60;0.60;;;0.90;99.90;;;;;;5016602;28;20644;-75
2024/01/27 10:54:01;;;;;;;0.57;0.57;;;1.00;99.90;;;;;;5016547;28;20213;-75
2024/01/27 10:56:29;;;;;;;0.28;0.28;;;1.00;99.90;;;;;;5034375;28;20198;-74
2024/01/27 10:58:57;;;;;;;3.80;2.40;;;1.00;99.90;;;;;;5034672;28;20215;-75
2024/01/27 11:01:24;;;;;;;0.30;0.30;;;1.00;99.90;;;;;;5016612;28;20198;-76
2024/01/27 11:03:52;;;;;;;0.43;0.43;;;1.00;99.90;;;;;;5034548;28;20214;-76
2024/01/27 11:06:21;;;;;;;0.30;0.30;;;1.00;99.90;;;;;;5016144;28;20581;-74
2024/01/27 11:08:49;;;;;;;0.32;0.32;;;1.20;99.90;;;;;;5016507;28;20201;-75
2024/01/27 11:11:14;;;;;;;0.30;0.30;;;1.30;99.90;;;;;;5034064;28;20247;-75
2024/01/27 11:13:40;;;;;;;0.47;0.47;;;1.20;99.90;;;;;;5033843;28;20198;-75
2024/01/27 11:16:17;;;;;;;0.30;0.30;;;1.30;99.90;;;;;;5033865;28;20202;-75
2024/01/27 11:18:43;;;;;;;0.32;0.32;;;1.20;99.90;;;;;;5016474;28;20214;-75
2024/01/27 11:21:16;;;;;;;0.40;0.40;;;1.20;99.90;;;;;;5033676;28;20197;-75
2024/01/27 11:23:43;;;;;;;0.30;0.30;;;1.00;99.90;;;;;;5016175;28;20675;-74
2024/01/27 11:26:10;;;;;;;0.30;0.30;;;1.00;99.90;;;;;;5016210;28;20198;-75
2024/01/27 11:28:36;;;;;;;0.50;0.50;;;0.90;99.90;;;;;;5033883;28;20207;-77
2024/01/27 11:31:06;;;;;;;0.40;0.40;;;0.90;99.90;;;;;;5034213;28;20281;-76
2024/01/27 11:33:32;;;;;;;0.30;0.30;;;0.80;99.90;;;;;;5033414;28;20228;-75
2024/01/27 11:36:05;;;;;;;0.30;0.30;;;0.70;99.90;;;;;;5033372;28;20597;-75
2024/01/27 11:38:31;;;;;;;0.40;0.40;;;0.70;99.90;;;;;;5033119;28;20289;-75
2024/01/27 11:40:58;;;;;;;0.30;0.30;;;0.70;99.90;;;;;;5015484;28;20198;-75
2024/01/27 11:43:23;;;;;;;1.35;0.57;;;0.80;99.90;;;;;;5015279;28;20195;-76
2024/01/27 11:45:57;;;;;;;0.38;0.38;;;0.90;99.90;;;;;;5033121;28;20560;-73
2024/01/27 11:48:23;;;;;;;0.28;0.28;;;0.90;99.90;;;;;;5032888;28;20276;-73
2024/01/27 11:50:49;;;;;;;0.20;0.20;;;0.90;99.90;;;;;;5032986;28;20623;-74
2024/01/27 11:53:14;;;;;;;0.30;0.30;;;0.90;99.90;;;;;;5032989;28;20278;-73
2024/01/27 11:55:40;;;;;;;0.30;0.30;;;0.70;99.90;;;;;;5031523;28;20201;-73
2024/01/27 11:58:06;;;;;;;0.75;0.75;;;0.60;99.90;;;;;;5032883;28;20210;-73
2024/01/27 12:00:32;;;;;;;0.20;0.20;;;0.50;99.90;;;;;;5032653;28;20194;-72
2024/01/27 12:02:58;;;;;;;0.40;0.40;;;0.40;99.90;;;;;;5015067;28;20201;-72
2024/01/27 12:05:24;;;;;;;0.32;0.32;;;0.30;99.90;;;;;;5032517;28;20269;-72
2024/01/27 12:07:51;;;;;;;0.60;0.60;;;0.30;99.90;;;;;;5014916;28;20280;-73
2024/01/27 12:10:16;;;;;;;0.40;0.40;;;0.40;99.90;;;;;;5032599;28;20190;-75
2024/01/27 12:12:42;;;;;;;0.30;0.30;;;0.40;99.90;;;;;;5032533;28;20247;-73
2024/01/27 12:15:08;;;;;;;0.30;0.30;;;0.40;99.90;;;;;;5032605;28;20194;-74
2024/01/27 12:17:34;;;;;;;0.30;0.30;;;0.40;99.90;;;;;;5032503;28;20285;-75
2024/01/27 12:20:00;;;;;;;0.22;0.22;;;0.40;99.90;;;;;;5032328;28;20666;-74
2024/01/27 12:22:28;;;;;;;6.22;1.60;;;0.40;99.90;;;;;;5032450;28;20190;-75
2024/01/27 12:25:11;;;;;;;1.85;1.60;;;0.50;99.90;;;;;;5032777;28;20190;-74
2024/01/27 12:27:37;;;;;;;0.30;0.30;;;0.50;99.90;;;;;;5030347;28;20206;-75
2024/01/27 12:30:04;;;;;;;0.30;0.30;;;0.50;99.90;;;;;;5011507;28;20217;-73
2024/01/27 12:32:31;;;;;;;0.40;0.40;;;0.50;99.90;;;;;;5029778;28;20206;-75
2024/01/27 12:35:00;;;;;;;0.40;0.40;;;0.50;99.90;;;;;;5030037;28;20210;-73
2024/01/27 12:37:26;;;;;;;0.30;0.30;;;0.60;99.90;;;;;;5009393;28;20663;-72
2024/01/27 12:39:51;;;;;;;0.30;0.30;;;0.80;99.90;;;;;;5026456;28;20208;-73
2024/01/27 12:42:17;;;;;;;0.30;0.30;;;0.90;99.90;;;;;;5023342;28;20222;-72
2024/01/27 12:44:43;;;;;;;0.40;0.40;;;1.10;99.90;;;;;;5025122;28;20736;-72
2024/01/27 12:47:13;;;;;;;0.30;0.30;;;1.20;99.90;;;;;;5022981;28;20206;-72